Pernille — 5BNZ2 — position and weather

sailwx.info

Track history (hours):
 
Tides and Currents Weather Stations Pressure Air Temp Water Temp Dewpoint Dewpoint Depression Visibility Wind Speed Wind Dir Waves Ship Positions

Pernille

Last reported at 2015-Jul-03 03:32 UTC. Time now 2015-Jul-05 23:14 UTC.
Position N 54°06' E 011°08'.

Length 82 m; draft 5.5 m.

Type: Cargo ship. MMSI: 212662000.

Date/timePositionNaut miles runAvg speedWind from/ knotsBaromVisibWave heightAir tempDewpointWater temp
2015-Jul-03 03:32N 54°06' E 011°08'8 8.2
2015-Jul-03 02:33N 54°12' E 011°17'8 8.4
2015-Jul-03 01:33N 54°20' E 011°22'7 7.4
2015-Jul-03 00:33N 54°28' E 011°22'7 6.6
2015-Jul-02 23:33N 54°33' E 011°16'6 6.5
2015-Jul-02 22:33N 54°37' E 011°07'7 7.1
2015-Jul-02 21:30N 54°43' E 010°60'7 7.1
2015-Jul-02 20:33N 54°49' E 010°53'6 5.6
2015-Jul-02 19:33N 54°54' E 010°53'7 6.6
2015-Jul-02 18:33N 54°60' E 011°00'7 6.8
2015-Jul-02 17:33N 55°06' E 011°02'7 6.6
2015-Jul-02 16:33N 55°13' E 011°06'7 7.2
2015-Jul-02 15:33N 55°19' E 011°02'71 6.9
2015-Jul-02 05:18N 56°30' E 011°03'5 7.1
2015-Jul-02 04:33N 56°36' E 011°05'7 7.4
2015-Jul-02 03:33N 56°43' E 011°07'7 7.4
2015-Jul-02 02:33N 56°50' E 011°10'8 7.6
2015-Jul-02 01:33N 56°57' E 011°16'8 7.9
2015-Jul-02 00:33N 57°04' E 011°21'8 7.9
2015-Jul-01 23:32N 57°12' E 011°23'8 8.2
2015-Jul-01 22:33N 57°20' E 011°23'8 8.1
2015-Jul-01 21:33N 57°28' E 011°24'8 8.2
2015-Jul-01 20:33N 57°37' E 011°25'8 8.4
2015-Jul-01 19:33N 57°45' E 011°26'8 8.0
2015-Jul-01 18:33N 57°53' E 011°30'8 8.2
2015-Jul-01 17:33N 57°57' E 011°42'8 7.8
2015-Jul-01 16:31N 58°05' E 011°48'8 8.0
2015-Jul-01 15:33N 58°13' E 011°51'7 6.8
2015-Jul-01 14:31N 58°20' E 011°51'2 0.2
2015-Jul-01 02:25N 58°21' E 011°55'0 0.0
2015-Jun-30 14:14N 58°21' E 011°54'7 6.2
2015-Jun-30 13:08N 58°14' E 011°51'7 8.7
2015-Jun-30 12:20N 58°07' E 011°50'7 8.9
2015-Jun-30 11:33N 58°01' E 011°46'9 8.9
2015-Jun-30 10:33N 57°55' E 011°34'9 9.5
2015-Jun-30 09:33N 57°47' E 011°23'10 9.9
2015-Jun-30 08:33N 57°39' E 011°12'10 9.5
2015-Jun-30 07:33N 57°31' E 011°02'10 9.2
2015-Jun-30 06:27N 57°23' E 010°51'8 8.9
2015-Jun-30 05:32N 57°16' E 010°45'9 8.9
2015-Jun-30 04:33N 57°07' E 010°47'9 8.7
2015-Jun-30 03:33N 56°59' E 010°52'130 3.7
2015-Jun-28 16:07N 54°51' E 010°10'14 8.9
2015-Jun-28 14:33N 54°37' E 010°16'8 8.3
2015-Jun-28 13:34N 54°29' E 010°18'8 8.5
2015-Jun-28 12:33N 54°22' E 010°10'2 1.6
2015-Jun-28 11:33N 54°22' E 010°07'8 7.5
2015-Jun-28 10:33N 54°21' E 009°54'7 7.2
2015-Jun-28 09:33N 54°19' E 009°43'8 7.6
2015-Jun-28 08:32N 54°13' E 009°34'8 8.1
2015-Jun-28 07:32N 54°09' E 009°22'6 6.6
2015-Jun-28 06:33N 54°03' E 009°18'7 6.8
2015-Jun-28 05:33N 53°57' E 009°14'4 4.3
2015-Jun-28 04:33N 53°54' E 009°09'2 2.5
2015-Jun-28 03:33N 53°53' E 009°13'9 8.5
2015-Jun-28 02:33N 53°47' E 009°23'1110.8
2015-Jun-28 01:33N 53°38' E 009°32'1010.2
2015-Jun-28 00:33N 53°33' E 009°48'5 5.5
2015-Jun-27 23:33N 53°31' E 009°56'0 0.2
2015-Jun-27 22:33N 53°31' E 009°57'0 0.0
2015-Jun-27 21:33N 53°31' E 009°57'0 0.0
2015-Jun-27 20:33N 53°31' E 009°57'0 0.0
2015-Jun-27 19:33N 53°31' E 009°57'0 0.0
2015-Jun-27 18:33N 53°31' E 009°57'0 0.0
2015-Jun-27 17:33N 53°31' E 009°57'0 0.0
2015-Jun-27 16:33N 53°31' E 009°57'0 0.0
2015-Jun-27 15:33N 53°31' E 009°57'0 0.1
2015-Jun-27 14:34N 53°31' E 009°56'5 4.7
2015-Jun-27 13:33N 53°33' E 009°49'7 7.2
2015-Jun-27 12:33N 53°35' E 009°37'4 3.5
2015-Jun-27 11:32N 53°37' E 009°33'0 0.0
2015-Jun-27 08:14N 53°37' E 009°33'0 0.0
2015-Jun-27 06:20N 53°37' E 009°33'0 0.1
2015-Jun-27 04:29N 53°37' E 009°33'0 0.0
2015-Jun-27 02:32N 53°37' E 009°33'0 0.0
2015-Jun-27 01:32N 53°37' E 009°33'0 0.0
2015-Jun-27 00:26N 53°37' E 009°33'0 0.0
2015-Jun-26 23:32N 53°37' E 009°33'0 0.1
2015-Jun-26 22:29N 53°37' E 009°33'0 0.0
2015-Jun-26 20:17N 53°37' E 009°33'0 0.0
2015-Jun-26 19:26N 53°37' E 009°33'0 0.1
2015-Jun-26 18:33N 53°37' E 009°33'10 9.6
2015-Jun-26 17:33N 53°45' E 009°24'1110.6
2015-Jun-26 16:33N 53°53' E 009°11'1010.1
2015-Jun-26 15:33N 53°50' E 008°55'9 8.5
2015-Jun-26 14:33N 53°54' E 008°41'9 8.8
2015-Jun-26 13:33N 53°58' E 008°29'9 9.3
2015-Jun-26 12:33N 53°59' E 008°13'9 9.0
2015-Jun-26 11:33N 53°55' E 007°60'1010.3
2015-Jun-26 10:33N 53°47' E 008°10'1212.3
2015-Jun-26 09:33N 53°39' E 008°26'9 8.7
2015-Jun-26 08:33N 53°31' E 008°33'0 0.1
2015-Jun-26 07:33N 53°31' E 008°33'0 0.1
2015-Jun-26 06:30N 53°31' E 008°33'0 0.0
2015-Jun-26 05:33N 53°31' E 008°33'0 0.0
2015-Jun-26 04:33N 53°31' E 008°33'0 0.0
2015-Jun-26 03:33N 53°31' E 008°33'0 0.0
2015-Jun-26 02:33N 53°31' E 008°33'0 0.1
2015-Jun-26 01:33N 53°31' E 008°33'0 0.0
2015-Jun-26 00:33N 53°31' E 008°33'0 0.0
2015-Jun-25 23:33N 53°31' E 008°33'0 0.0
2015-Jun-25 22:33N 53°31' E 008°33'0 0.0
2015-Jun-25 21:33N 53°31' E 008°33'0 0.0
2015-Jun-25 20:33N 53°31' E 008°33'0 0.0
2015-Jun-25 19:30N 53°31' E 008°33'0 0.1
2015-Jun-25 18:33N 53°31' E 008°33'0 0.0
2015-Jun-25 17:33N 53°31' E 008°33'0 0.0
2015-Jun-25 16:33N 53°31' E 008°33'0 0.0
2015-Jun-25 15:33N 53°31' E 008°33'0 0.0
2015-Jun-25 14:33N 53°31' E 008°33'0 0.0
2015-Jun-25 13:33N 53°31' E 008°33'0 0.1
2015-Jun-25 12:30N 53°31' E 008°33'0 0.0
2015-Jun-25 11:33N 53°31' E 008°33'0 0.0
2015-Jun-25 10:33N 53°31' E 008°33'0 0.0
2015-Jun-25 09:33N 53°31' E 008°33'0 0.0
2015-Jun-25 08:33N 53°31' E 008°33'0 0.0
2015-Jun-25 07:33N 53°31' E 008°33'0 0.0
2015-Jun-25 06:33N 53°31' E 008°33'0 0.1
2015-Jun-25 05:33N 53°31' E 008°33'0 0.0
2015-Jun-25 04:33N 53°31' E 008°33'0 0.0
2015-Jun-25 03:33N 53°31' E 008°33'0 0.0
2015-Jun-25 02:33N 53°31' E 008°33'0 0.0
2015-Jun-25 01:33N 53°31' E 008°33'0 0.1
2015-Jun-25 00:30N 53°31' E 008°33'0 0.0
2015-Jun-24 23:33N 53°31' E 008°33'0 0.0
2015-Jun-24 22:30N 53°31' E 008°33'0 0.0
2015-Jun-24 21:33N 53°31' E 008°33'0 0.0
2015-Jun-24 20:33N 53°31' E 008°33'0 0.0
2015-Jun-24 19:33N 53°31' E 008°33'0 0.0
2015-Jun-24 18:33N 53°31' E 008°33'0 0.1
2015-Jun-24 17:33N 53°31' E 008°33'0 0.1
2015-Jun-24 16:33N 53°31' E 008°33'0 0.0
2015-Jun-24 15:33N 53°31' E 008°33'0 0.0
2015-Jun-24 14:33N 53°31' E 008°33'0 0.0
2015-Jun-24 13:33N 53°31' E 008°33'0 0.1
2015-Jun-24 12:33N 53°31' E 008°33'0 0.0
2015-Jun-24 11:33N 53°31' E 008°33'0 0.0
2015-Jun-24 10:33N 53°31' E 008°33'0 0.0
2015-Jun-24 09:33N 53°31' E 008°33'0 0.0
2015-Jun-24 08:33N 53°31' E 008°33'0 0.0
2015-Jun-24 07:33N 53°31' E 008°33'0 0.0
2015-Jun-24 06:33N 53°31' E 008°33'0 0.0
2015-Jun-24 05:33N 53°31' E 008°33'0 0.1
2015-Jun-24 04:33N 53°31' E 008°33'0 0.0
2015-Jun-24 03:33N 53°31' E 008°33'0 0.0
2015-Jun-24 02:33N 53°31' E 008°33'0 0.0
2015-Jun-24 01:33N 53°31' E 008°33'0 0.1
2015-Jun-24 00:33N 53°31' E 008°33'0 0.1
2015-Jun-23 23:33N 53°31' E 008°33'0 0.0
2015-Jun-23 22:33N 53°31' E 008°33'0 0.0
2015-Jun-23 21:33N 53°31' E 008°33'0 0.0
2015-Jun-23 20:33N 53°31' E 008°33'0 0.0
2015-Jun-23 19:33N 53°31' E 008°33'0 0.0
2015-Jun-23 19:06N 53°31' E 008°33'  
Track history (hours):
 
Tides and Currents Weather Stations Pressure Air Temp Water Temp Dewpoint Dewpoint Depression Visibility Wind Speed Wind Dir Waves Ship Positions

Pernille

Last reported at 2015-Jul-03 03:32 UTC. Time now 2015-Jul-05 23:14 UTC.
Position N 54°06' E 011°08'.

Length 82 m; draft 5.5 m.

Type: Cargo ship. MMSI: 212662000.

Date/timePositionNaut miles runAvg speedWind from/ knotsBaromVisibWave heightAir tempDewpointWater temp
2015-Jul-03 03:32N 54°06' E 011°08'8 8.2
2015-Jul-03 02:33N 54°12' E 011°17'8 8.4
2015-Jul-03 01:33N 54°20' E 011°22'7 7.4
2015-Jul-03 00:33N 54°28' E 011°22'7 6.6
2015-Jul-02 23:33N 54°33' E 011°16'6 6.5
2015-Jul-02 22:33N 54°37' E 011°07'7 7.1
2015-Jul-02 21:30N 54°43' E 010°60'7 7.1
2015-Jul-02 20:33N 54°49' E 010°53'6 5.6
2015-Jul-02 19:33N 54°54' E 010°53'7 6.6
2015-Jul-02 18:33N 54°60' E 011°00'7 6.8
2015-Jul-02 17:33N 55°06' E 011°02'7 6.6
2015-Jul-02 16:33N 55°13' E 011°06'7 7.2
2015-Jul-02 15:33N 55°19' E 011°02'71 6.9
2015-Jul-02 05:18N 56°30' E 011°03'5 7.1
2015-Jul-02 04:33N 56°36' E 011°05'7 7.4
2015-Jul-02 03:33N 56°43' E 011°07'7 7.4
2015-Jul-02 02:33N 56°50' E 011°10'8 7.6
2015-Jul-02 01:33N 56°57' E 011°16'8 7.9
2015-Jul-02 00:33N 57°04' E 011°21'8 7.9
2015-Jul-01 23:32N 57°12' E 011°23'8 8.2
2015-Jul-01 22:33N 57°20' E 011°23'8 8.1
2015-Jul-01 21:33N 57°28' E 011°24'8 8.2
2015-Jul-01 20:33N 57°37' E 011°25'8 8.4
2015-Jul-01 19:33N 57°45' E 011°26'8 8.0
2015-Jul-01 18:33N 57°53' E 011°30'8 8.2
2015-Jul-01 17:33N 57°57' E 011°42'8 7.8
2015-Jul-01 16:31N 58°05' E 011°48'8 8.0
2015-Jul-01 15:33N 58°13' E 011°51'7 6.8
2015-Jul-01 14:31N 58°20' E 011°51'2 0.2
2015-Jul-01 02:25N 58°21' E 011°55'0 0.0
2015-Jun-30 14:14N 58°21' E 011°54'7 6.2
2015-Jun-30 13:08N 58°14' E 011°51'7 8.7
2015-Jun-30 12:20N 58°07' E 011°50'7 8.9
2015-Jun-30 11:33N 58°01' E 011°46'9 8.9
2015-Jun-30 10:33N 57°55' E 011°34'9 9.5
2015-Jun-30 09:33N 57°47' E 011°23'10 9.9
2015-Jun-30 08:33N 57°39' E 011°12'10 9.5
2015-Jun-30 07:33N 57°31' E 011°02'10 9.2
2015-Jun-30 06:27N 57°23' E 010°51'8 8.9
2015-Jun-30 05:32N 57°16' E 010°45'9 8.9
2015-Jun-30 04:33N 57°07' E 010°47'9 8.7
2015-Jun-30 03:33N 56°59' E 010°52'130 3.7
2015-Jun-28 16:07N 54°51' E 010°10'14 8.9
2015-Jun-28 14:33N 54°37' E 010°16'8 8.3
2015-Jun-28 13:34N 54°29' E 010°18'8 8.5
2015-Jun-28 12:33N 54°22' E 010°10'2 1.6
2015-Jun-28 11:33N 54°22' E 010°07'8 7.5
2015-Jun-28 10:33N 54°21' E 009°54'7 7.2
2015-Jun-28 09:33N 54°19' E 009°43'8 7.6
2015-Jun-28 08:32N 54°13' E 009°34'8 8.1
2015-Jun-28 07:32N 54°09' E 009°22'6 6.6
2015-Jun-28 06:33N 54°03' E 009°18'7 6.8
2015-Jun-28 05:33N 53°57' E 009°14'4 4.3
2015-Jun-28 04:33N 53°54' E 009°09'2 2.5
2015-Jun-28 03:33N 53°53' E 009°13'9 8.5
2015-Jun-28 02:33N 53°47' E 009°23'1110.8
2015-Jun-28 01:33N 53°38' E 009°32'1010.2
2015-Jun-28 00:33N 53°33' E 009°48'5 5.5
2015-Jun-27 23:33N 53°31' E 009°56'0 0.2
2015-Jun-27 22:33N 53°31' E 009°57'0 0.0
2015-Jun-27 21:33N 53°31' E 009°57'0 0.0
2015-Jun-27 20:33N 53°31' E 009°57'0 0.0
2015-Jun-27 19:33N 53°31' E 009°57'0 0.0
2015-Jun-27 18:33N 53°31' E 009°57'0 0.0
2015-Jun-27 17:33N 53°31' E 009°57'0 0.0
2015-Jun-27 16:33N 53°31' E 009°57'0 0.0
2015-Jun-27 15:33N 53°31' E 009°57'0 0.1
2015-Jun-27 14:34N 53°31' E 009°56'5 4.7
2015-Jun-27 13:33N 53°33' E 009°49'7 7.2
2015-Jun-27 12:33N 53°35' E 009°37'4 3.5
2015-Jun-27 11:32N 53°37' E 009°33'0 0.0
2015-Jun-27 08:14N 53°37' E 009°33'0 0.0
2015-Jun-27 06:20N 53°37' E 009°33'0 0.1
2015-Jun-27 04:29N 53°37' E 009°33'0 0.0
2015-Jun-27 02:32N 53°37' E 009°33'0 0.0
2015-Jun-27 01:32N 53°37' E 009°33'0 0.0
2015-Jun-27 00:26N 53°37' E 009°33'0 0.0
2015-Jun-26 23:32N 53°37' E 009°33'0 0.1
2015-Jun-26 22:29N 53°37' E 009°33'0 0.0
2015-Jun-26 20:17N 53°37' E 009°33'0 0.0
2015-Jun-26 19:26N 53°37' E 009°33'0 0.1
2015-Jun-26 18:33N 53°37' E 009°33'10 9.6
2015-Jun-26 17:33N 53°45' E 009°24'1110.6
2015-Jun-26 16:33N 53°53' E 009°11'1010.1
2015-Jun-26 15:33N 53°50' E 008°55'9 8.5
2015-Jun-26 14:33N 53°54' E 008°41'9 8.8
2015-Jun-26 13:33N 53°58' E 008°29'9 9.3
2015-Jun-26 12:33N 53°59' E 008°13'9 9.0
2015-Jun-26 11:33N 53°55' E 007°60'1010.3
2015-Jun-26 10:33N 53°47' E 008°10'1212.3
2015-Jun-26 09:33N 53°39' E 008°26'9 8.7
2015-Jun-26 08:33N 53°31' E 008°33'0 0.1
2015-Jun-26 07:33N 53°31' E 008°33'0 0.1
2015-Jun-26 06:30N 53°31' E 008°33'0 0.0
2015-Jun-26 05:33N 53°31' E 008°33'0 0.0
2015-Jun-26 04:33N 53°31' E 008°33'0 0.0
2015-Jun-26 03:33N 53°31' E 008°33'0 0.0
2015-Jun-26 02:33N 53°31' E 008°33'0 0.1
2015-Jun-26 01:33N 53°31' E 008°33'0 0.0
2015-Jun-26 00:33N 53°31' E 008°33'0 0.0
2015-Jun-25 23:33N 53°31' E 008°33'0 0.0
2015-Jun-25 22:33N 53°31' E 008°33'0 0.0
2015-Jun-25 21:33N 53°31' E 008°33'0 0.0
2015-Jun-25 20:33N 53°31' E 008°33'0 0.0
2015-Jun-25 19:30N 53°31' E 008°33'0 0.1
2015-Jun-25 18:33N 53°31' E 008°33'0 0.0
2015-Jun-25 17:33N 53°31' E 008°33'0 0.0
2015-Jun-25 16:33N 53°31' E 008°33'0 0.0
2015-Jun-25 15:33N 53°31' E 008°33'0 0.0
2015-Jun-25 14:33N 53°31' E 008°33'0 0.0
2015-Jun-25 13:33N 53°31' E 008°33'0 0.1
2015-Jun-25 12:30N 53°31' E 008°33'0 0.0
2015-Jun-25 11:33N 53°31' E 008°33'0 0.0
2015-Jun-25 10:33N 53°31' E 008°33'0 0.0
2015-Jun-25 09:33N 53°31' E 008°33'0 0.0
2015-Jun-25 08:33N 53°31' E 008°33'0 0.0
2015-Jun-25 07:33N 53°31' E 008°33'0 0.0
2015-Jun-25 06:33N 53°31' E 008°33'0 0.1
2015-Jun-25 05:33N 53°31' E 008°33'0 0.0
2015-Jun-25 04:33N 53°31' E 008°33'0 0.0
2015-Jun-25 03:33N 53°31' E 008°33'0 0.0
2015-Jun-25 02:33N 53°31' E 008°33'0 0.0
2015-Jun-25 01:33N 53°31' E 008°33'0 0.1
2015-Jun-25 00:30N 53°31' E 008°33'0 0.0
2015-Jun-24 23:33N 53°31' E 008°33'0 0.0
2015-Jun-24 22:30N 53°31' E 008°33'0 0.0
2015-Jun-24 21:33N 53°31' E 008°33'0 0.0
2015-Jun-24 20:33N 53°31' E 008°33'0 0.0
2015-Jun-24 19:33N 53°31' E 008°33'0 0.0
2015-Jun-24 18:33N 53°31' E 008°33'0 0.1
2015-Jun-24 17:33N 53°31' E 008°33'0 0.1
2015-Jun-24 16:33N 53°31' E 008°33'0 0.0
2015-Jun-24 15:33N 53°31' E 008°33'0 0.0
2015-Jun-24 14:33N 53°31' E 008°33'0 0.0
2015-Jun-24 13:33N 53°31' E 008°33'0 0.1
2015-Jun-24 12:33N 53°31' E 008°33'0 0.0
2015-Jun-24 11:33N 53°31' E 008°33'0 0.0
2015-Jun-24 10:33N 53°31' E 008°33'0 0.0
2015-Jun-24 09:33N 53°31' E 008°33'0 0.0
2015-Jun-24 08:33N 53°31' E 008°33'0 0.0
2015-Jun-24 07:33N 53°31' E 008°33'0 0.0
2015-Jun-24 06:33N 53°31' E 008°33'0 0.0
2015-Jun-24 05:33N 53°31' E 008°33'0 0.1
2015-Jun-24 04:33N 53°31' E 008°33'0 0.0
2015-Jun-24 03:33N 53°31' E 008°33'0 0.0
2015-Jun-24 02:33N 53°31' E 008°33'0 0.0
2015-Jun-24 01:33N 53°31' E 008°33'0 0.1
2015-Jun-24 00:33N 53°31' E 008°33'0 0.1
2015-Jun-23 23:33N 53°31' E 008°33'0 0.0
2015-Jun-23 22:33N 53°31' E 008°33'0 0.0
2015-Jun-23 21:33N 53°31' E 008°33'0 0.0
2015-Jun-23 20:33N 53°31' E 008°33'0 0.0
2015-Jun-23 19:33N 53°31' E 008°33'0 0.0
2015-Jun-23 19:06N 53°31' E 008°33'  

Dump ship's entire track history